createdAt,value
2017-09-25T00:01:06.870Z,23.87
2017-09-25T00:03:35.850Z,24.23
2017-09-25T00:06:04.754Z,29.93
2017-09-25T00:08:33.670Z,23.23
2017-09-25T00:11:02.525Z,24.87
2017-09-25T00:13:31.747Z,34.03
2017-09-25T00:16:00.620Z,24.27
2017-09-25T00:18:29.518Z,23.60
2017-09-25T00:20:58.605Z,23.50
2017-09-25T00:23:27.539Z,24.10
2017-09-25T00:25:56.452Z,27.60
2017-09-25T00:28:25.360Z,31.20
2017-09-25T00:30:54.235Z,21.27
2017-09-25T00:33:23.102Z,21.80
2017-09-25T00:35:52.011Z,24.50
2017-09-25T00:38:20.896Z,22.60
2017-09-25T00:40:49.777Z,21.93
2017-09-25T00:43:18.682Z,21.83
2017-09-25T00:45:47.589Z,18.23
2017-09-25T00:48:16.466Z,19.30
2017-09-25T00:50:48.476Z,26.23
2017-09-25T00:53:33.055Z,28.10
2017-09-25T00:56:02.086Z,20.03
2017-09-25T00:58:31.782Z,19.00
2017-09-25T01:01:06.523Z,22.03
2017-09-25T01:03:41.247Z,26.77
2017-09-25T01:06:16.064Z,22.97
2017-09-25T01:08:44.932Z,24.40
2017-09-25T01:11:13.801Z,25.47
2017-09-25T01:13:42.718Z,22.87
2017-09-25T01:16:11.579Z,24.60
2017-09-25T01:18:40.449Z,23.73
2017-09-25T01:21:09.342Z,21.43
2017-09-25T01:23:38.254Z,26.10
2017-09-25T01:26:07.132Z,18.80
2017-09-25T01:28:36.046Z,25.87
2017-09-25T01:31:04.911Z,19.87
2017-09-25T01:33:33.780Z,19.93
2017-09-25T01:36:02.747Z,21.67
2017-09-25T01:38:31.626Z,18.80
2017-09-25T01:41:00.498Z,19.50
2017-09-25T01:43:29.426Z,25.50
2017-09-25T01:45:58.283Z,20.40
2017-09-25T01:48:27.145Z,19.67
2017-09-25T01:50:56.214Z,21.40
2017-09-25T01:53:25.082Z,17.80
2017-09-25T01:55:53.947Z,22.00
2017-09-25T01:58:22.845Z,19.67
2017-09-25T02:00:51.690Z,19.90
2017-09-25T02:03:20.554Z,21.87
2017-09-25T02:05:49.549Z,22.50
2017-09-25T02:08:18.430Z,26.23
2017-09-25T02:10:47.295Z,22.43
2017-09-25T02:13:16.270Z,18.30
2017-09-25T02:15:45.144Z,20.70
2017-09-25T02:18:14.049Z,22.30
2017-09-25T02:20:42.954Z,26.33
2017-09-25T02:23:11.833Z,22.10
2017-09-25T02:25:40.705Z,20.43
2017-09-25T02:28:09.612Z,25.00
2017-09-25T02:30:38.463Z,20.80
2017-09-25T02:33:07.336Z,23.47
2017-09-25T02:35:36.248Z,19.77
2017-09-25T02:38:05.106Z,25.17
2017-09-25T02:40:33.963Z,22.80
2017-09-25T02:43:02.870Z,23.13
2017-09-25T02:45:31.734Z,21.83
2017-09-25T02:48:00.603Z,22.07
2017-09-25T02:50:29.533Z,22.30
2017-09-25T02:52:58.390Z,27.37
2017-09-25T02:55:27.246Z,16.57
2017-09-25T02:57:56.155Z,31.03
2017-09-25T03:00:25.080Z,19.17
2017-09-25T03:02:53.964Z,21.97
2017-09-25T03:05:22.866Z,23.40
2017-09-25T03:07:51.771Z,17.40
2017-09-25T03:10:20.648Z,24.03
2017-09-25T03:12:49.835Z,21.43
2017-09-25T03:15:18.714Z,22.87
2017-09-25T03:17:48.112Z,18.50
2017-09-25T03:20:32.112Z,17.30
2017-09-25T03:23:00.970Z,15.37
2017-09-25T03:25:29.832Z,14.43
2017-09-25T03:27:58.749Z,14.10
2017-09-25T03:30:27.613Z,16.27
2017-09-25T03:32:56.474Z,14.90
2017-09-25T03:35:25.406Z,16.70
2017-09-25T03:37:54.257Z,14.97
2017-09-25T03:40:23.132Z,18.53
2017-09-25T03:42:52.185Z,20.10
2017-09-25T03:45:21.073Z,16.37
2017-09-25T03:47:49.941Z,14.23
2017-09-25T03:50:18.842Z,16.33
2017-09-25T03:52:47.698Z,15.40
2017-09-25T03:55:16.576Z,14.53
2017-09-25T03:57:45.927Z,15.97
2017-09-25T04:00:14.803Z,17.13
2017-09-25T04:02:43.660Z,18.87
2017-09-25T04:05:12.686Z,14.47
2017-09-25T04:07:41.559Z,24.60
2017-09-25T04:10:10.436Z,16.57
2017-09-25T04:12:39.466Z,16.03
2017-09-25T04:15:08.331Z,14.80
2017-09-25T04:17:37.204Z,16.73
2017-09-25T04:20:06.089Z,15.40
2017-09-25T04:22:34.978Z,24.70
2017-09-25T04:25:03.868Z,14.43
2017-09-25T04:27:32.762Z,20.57
2017-09-25T04:30:06.226Z,18.77
2017-09-25T04:32:35.131Z,15.33
2017-09-25T04:35:04.000Z,23.43
2017-09-25T04:37:32.855Z,15.70
2017-09-25T04:40:01.854Z,13.30
2017-09-25T04:42:30.717Z,18.50
2017-09-25T04:44:59.575Z,17.67
2017-09-25T04:47:28.479Z,17.93
2017-09-25T04:49:57.370Z,19.37
2017-09-25T04:52:26.289Z,19.20
2017-09-25T04:54:55.174Z,12.73
2017-09-25T04:57:24.053Z,12.20
2017-09-25T04:59:52.946Z,18.27
2017-09-25T05:02:21.856Z,12.73
2017-09-25T05:04:50.717Z,12.33
2017-09-25T05:07:19.625Z,14.17
2017-09-25T05:09:48.554Z,12.30
2017-09-25T05:12:17.415Z,16.43
2017-09-25T05:14:46.279Z,19.00
2017-09-25T05:17:15.223Z,11.73
2017-09-25T05:19:44.122Z,11.97
2017-09-25T05:22:13.000Z,14.17
2017-09-25T05:24:41.902Z,12.20
2017-09-25T05:27:10.762Z,22.17
2017-09-25T05:29:39.619Z,16.13
2017-09-25T05:32:08.506Z,11.30
2017-09-25T05:34:37.385Z,9.40
2017-09-25T05:37:06.250Z,12.83
2017-09-25T05:39:35.150Z,12.10
2017-09-25T05:42:04.007Z,14.57
2017-09-25T05:44:32.875Z,10.83
2017-09-25T05:47:01.822Z,16.70
2017-09-25T05:49:30.683Z,21.23
2017-09-25T05:51:59.551Z,13.93
2017-09-25T05:54:28.471Z,17.63
2017-09-25T05:56:57.334Z,23.23
2017-09-25T05:59:26.191Z,15.70
2017-09-25T06:01:55.286Z,14.90
2017-09-25T06:04:24.251Z,17.30
2017-09-25T06:06:54.140Z,28.83
2017-09-25T06:09:23.063Z,17.73
2017-09-25T06:11:51.975Z,15.77
2017-09-25T06:14:21.071Z,15.27
2017-09-25T06:16:50.020Z,18.40
2017-09-25T06:19:18.879Z,22.00
2017-09-25T06:21:47.727Z,17.03
2017-09-25T06:24:16.830Z,21.73
2017-09-25T06:26:45.829Z,18.73
2017-09-25T06:29:14.691Z,14.93
2017-09-25T06:31:43.807Z,16.70
2017-09-25T06:34:12.697Z,16.60
2017-09-25T06:36:41.563Z,21.27
2017-09-25T06:39:10.456Z,15.80
2017-09-25T06:41:39.330Z,16.73
2017-09-25T06:44:08.195Z,17.03
2017-09-25T06:46:37.248Z,15.97
2017-09-25T06:49:06.095Z,15.27
2017-09-25T06:51:34.996Z,20.33
2017-09-25T06:54:03.927Z,16.77
2017-09-25T06:56:33.922Z,17.97
2017-09-25T06:59:02.816Z,20.17
2017-09-25T07:01:31.738Z,21.70
2017-09-25T07:04:00.600Z,22.70
2017-09-25T07:06:29.502Z,23.93
2017-09-25T07:08:58.579Z,20.87
2017-09-25T07:11:27.451Z,24.60
2017-09-25T07:13:56.318Z,19.40
2017-09-25T07:16:25.228Z,25.63
2017-09-25T07:18:54.095Z,23.37
2017-09-25T07:21:22.982Z,29.03
2017-09-25T07:23:51.914Z,25.87
2017-09-25T07:26:20.833Z,24.90
2017-09-25T07:28:49.837Z,29.00
2017-09-25T07:31:18.730Z,26.10
2017-09-25T07:33:47.591Z,21.83
2017-09-25T07:36:16.433Z,20.03
2017-09-25T07:38:45.331Z,26.40
2017-09-25T07:41:14.202Z,23.70
2017-09-25T07:43:43.061Z,31.03
2017-09-25T07:46:11.952Z,24.70
2017-09-25T07:48:40.807Z,21.63
2017-09-25T07:51:09.662Z,23.40
2017-09-25T07:53:38.694Z,48.53
2017-09-25T07:56:07.551Z,53.97
2017-09-25T07:58:36.418Z,52.87
2017-09-25T08:01:05.327Z,40.20
2017-09-25T08:03:35.121Z,35.20
2017-09-25T08:06:03.988Z,42.27
2017-09-25T08:08:32.932Z,29.17
2017-09-25T08:11:01.812Z,40.03
2017-09-25T08:13:30.703Z,34.07
2017-09-25T08:15:59.648Z,36.47
2017-09-25T08:18:28.551Z,36.73
2017-09-25T08:20:57.445Z,44.30
2017-09-25T08:23:26.346Z,46.83
2017-09-25T08:25:55.229Z,36.37
2017-09-25T08:28:24.145Z,40.07
2017-09-25T08:30:53.074Z,39.10
2017-09-25T08:33:22.066Z,43.57
2017-09-25T08:35:51.192Z,43.50
2017-09-25T08:38:20.154Z,38.13
2017-09-25T08:40:49.012Z,40.53
2017-09-25T08:43:17.878Z,45.97
2017-09-25T08:45:46.823Z,48.10
2017-09-25T08:48:15.743Z,43.33
2017-09-25T08:50:44.814Z,36.87
2017-09-25T08:53:13.751Z,37.97
2017-09-25T08:55:42.713Z,43.83
2017-09-25T08:58:11.640Z,41.10
2017-09-25T09:00:40.622Z,41.00
2017-09-25T09:03:09.661Z,36.00
2017-09-25T09:05:38.527Z,38.57
2017-09-25T09:08:07.622Z,38.80
2017-09-25T09:10:36.549Z,37.33
2017-09-25T09:13:05.399Z,27.40
2017-09-25T09:15:34.303Z,19.27
2017-09-25T09:18:03.183Z,18.90
2017-09-25T09:20:32.104Z,23.60
2017-09-25T09:23:01.033Z,25.53
2017-09-25T09:25:29.885Z,38.40
2017-09-25T09:27:58.767Z,27.90
2017-09-25T09:30:27.876Z,24.43
2017-09-25T09:32:57.099Z,18.83
2017-09-25T09:35:26.097Z,20.50
2017-09-25T09:37:55.239Z,17.60
2017-09-25T09:40:24.114Z,16.57
2017-09-25T09:42:53.042Z,17.33
2017-09-25T09:45:22.147Z,14.30
2017-09-25T09:47:51.046Z,15.90
2017-09-25T09:50:19.902Z,17.07
2017-09-25T09:52:49.157Z,13.77
2017-09-25T09:55:18.313Z,12.13
2017-09-25T09:57:47.175Z,11.10
2017-09-25T10:00:16.335Z,12.20
2017-09-25T10:02:45.222Z,24.00
2017-09-25T10:05:14.085Z,14.80
2017-09-25T10:07:42.997Z,17.93
2017-09-25T10:10:11.887Z,14.80
2017-09-25T10:12:40.776Z,15.10
2017-09-25T10:15:09.691Z,14.87
2017-09-25T10:17:38.569Z,14.97
2017-09-25T10:20:07.435Z,37.40
2017-09-25T10:22:36.341Z,13.80
2017-09-25T10:25:05.195Z,15.87
2017-09-25T10:27:34.067Z,12.40
2017-09-25T10:30:02.964Z,14.93
2017-09-25T10:32:31.830Z,17.60
2017-09-25T10:35:00.694Z,21.07
2017-09-25T10:37:29.591Z,15.40
2017-09-25T10:39:58.457Z,15.13
2017-09-25T10:42:27.314Z,14.80
2017-09-25T10:44:56.240Z,15.87
2017-09-25T10:47:25.112Z,15.47
2017-09-25T10:49:53.976Z,15.53
2017-09-25T10:52:22.893Z,15.33
2017-09-25T10:54:51.798Z,15.37
2017-09-25T10:57:20.666Z,15.60
2017-09-25T10:59:49.574Z,16.60
2017-09-25T11:02:18.446Z,17.97
2017-09-25T11:04:47.327Z,18.73
2017-09-25T11:07:16.233Z,15.23
2017-09-25T11:09:45.338Z,18.47
2017-09-25T11:12:14.210Z,20.77
2017-09-25T11:14:43.137Z,18.47
2017-09-25T11:17:12.004Z,29.00
2017-09-25T11:19:40.899Z,18.17
2017-09-25T11:22:09.922Z,18.30
2017-09-25T11:24:38.794Z,17.00
2017-09-25T11:27:07.663Z,17.87
2017-09-25T11:29:36.564Z,14.83
2017-09-25T11:32:05.560Z,15.43
2017-09-25T11:34:34.442Z,17.07
2017-09-25T11:37:03.383Z,13.00
2017-09-25T11:39:32.243Z,13.80
2017-09-25T11:42:01.107Z,13.37
2017-09-25T11:44:30.027Z,11.00
2017-09-25T11:46:58.892Z,11.90
2017-09-25T11:49:27.754Z,12.17
2017-09-25T11:51:56.649Z,14.47
2017-09-25T11:54:25.498Z,15.67
2017-09-25T11:56:54.360Z,12.50
2017-09-25T11:59:23.288Z,10.83
2017-09-25T12:01:52.151Z,11.70
2017-09-25T12:04:21.044Z,12.30
2017-09-25T12:06:49.956Z,12.53
2017-09-25T12:09:18.823Z,14.10
2017-09-25T12:11:47.704Z,11.07
2017-09-25T12:14:16.626Z,12.50
2017-09-25T12:16:45.488Z,8.77
2017-09-25T12:19:14.355Z,12.30
2017-09-25T12:21:43.543Z,11.00
2017-09-25T12:24:12.427Z,16.97
2017-09-25T12:26:41.335Z,15.30
2017-09-25T12:29:10.328Z,11.90
2017-09-25T12:31:39.184Z,12.70
2017-09-25T12:34:08.059Z,9.40
2017-09-25T12:36:36.951Z,14.97
2017-09-25T12:39:05.819Z,12.73
2017-09-25T12:41:34.682Z,12.07
2017-09-25T12:44:03.562Z,10.30
2017-09-25T12:46:32.448Z,13.37
2017-09-25T12:49:01.306Z,9.87
2017-09-25T12:51:30.325Z,13.80
2017-09-25T12:53:59.177Z,12.63
2017-09-25T12:56:28.803Z,7.90
2017-09-25T12:58:57.908Z,9.90
2017-09-25T13:01:26.770Z,8.00
2017-09-25T13:03:55.625Z,8.20
2017-09-25T13:06:24.712Z,6.00
2017-09-25T13:08:53.567Z,6.80
2017-09-25T13:11:22.484Z,6.90
2017-09-25T13:13:51.370Z,8.67
2017-09-25T13:16:20.256Z,12.30
2017-09-25T13:18:49.126Z,9.97
2017-09-25T13:21:18.129Z,11.40
2017-09-25T13:23:46.992Z,12.90
2017-09-25T13:26:15.857Z,9.73
2017-09-25T13:28:44.759Z,11.53
2017-09-25T13:31:13.636Z,12.50
2017-09-25T13:33:42.482Z,11.00
2017-09-25T13:36:11.490Z,11.20
2017-09-25T13:38:40.364Z,14.57
2017-09-25T13:41:09.227Z,11.17
2017-09-25T13:43:38.312Z,15.50
2017-09-25T13:46:07.183Z,14.37
2017-09-25T13:48:36.045Z,12.33
2017-09-25T13:51:05.031Z,12.83
2017-09-25T13:53:34.000Z,13.40
2017-09-25T13:56:02.881Z,11.17
2017-09-25T13:58:31.802Z,16.97
2017-09-25T14:03:35.034Z,28.70
2017-09-25T14:06:03.887Z,12.50
2017-09-25T14:08:32.930Z,13.20
2017-09-25T14:11:01.832Z,11.93
2017-09-25T14:13:30.691Z,16.33
2017-09-25T14:15:59.538Z,16.00
2017-09-25T14:18:28.623Z,14.70
2017-09-25T14:20:57.499Z,13.93
2017-09-25T14:23:26.368Z,14.60
2017-09-25T14:25:55.277Z,20.00
2017-09-25T14:28:24.134Z,13.60
2017-09-25T14:30:52.999Z,17.27
2017-09-25T14:33:22.151Z,14.07
2017-09-25T14:35:51.005Z,14.00
2017-09-25T14:38:19.854Z,16.43
2017-09-25T14:40:48.759Z,20.10
2017-09-25T14:43:17.606Z,13.13
2017-09-25T14:45:46.473Z,15.73
2017-09-25T14:48:15.387Z,38.70
2017-09-25T14:50:44.254Z,67.60
2017-09-25T14:53:13.110Z,39.43
2017-09-25T14:55:42.050Z,20.83
2017-09-25T14:58:10.940Z,13.43
2017-09-25T15:00:39.821Z,16.03
2017-09-25T15:03:09.019Z,16.23
2017-09-25T15:05:37.908Z,19.00
2017-09-25T15:08:06.766Z,15.30
2017-09-25T15:10:35.806Z,13.73
2017-09-25T15:13:04.779Z,14.43
2017-09-25T15:15:33.642Z,17.43
2017-09-25T15:18:02.540Z,18.87
2017-09-25T15:20:31.412Z,23.90
2017-09-25T15:23:00.314Z,20.83
2017-09-25T15:25:29.199Z,17.67
2017-09-25T15:27:58.056Z,20.67
2017-09-25T15:30:26.906Z,17.63
2017-09-25T15:32:55.806Z,34.67
2017-09-25T15:35:24.671Z,26.13
2017-09-25T15:37:53.531Z,21.47
2017-09-25T15:40:22.427Z,39.07
2017-09-25T15:42:51.312Z,24.13
2017-09-25T15:45:21.109Z,23.33
2017-09-25T15:47:50.053Z,25.93
2017-09-25T15:50:20.431Z,29.43
2017-09-25T15:52:49.324Z,25.70
2017-09-25T15:55:18.195Z,26.97
2017-09-25T15:57:47.066Z,41.90
2017-09-25T16:00:16.139Z,29.67
2017-09-25T16:02:44.991Z,22.97
2017-09-25T16:05:13.874Z,29.30
2017-09-25T16:07:42.790Z,28.60
2017-09-25T16:10:11.660Z,33.13
2017-09-25T16:12:40.521Z,29.17
2017-09-25T16:15:09.886Z,29.27
2017-09-25T16:17:38.756Z,30.50
2017-09-25T16:20:07.612Z,31.20
2017-09-25T16:22:36.655Z,29.83
2017-09-25T16:25:05.554Z,23.70
2017-09-25T16:27:34.412Z,28.33
2017-09-25T16:30:03.319Z,25.13
2017-09-25T16:32:32.197Z,25.97
2017-09-25T16:35:01.051Z,20.90
2017-09-25T16:37:29.963Z,41.50
2017-09-25T16:39:58.822Z,29.60
2017-09-25T16:42:27.685Z,21.93
2017-09-25T16:44:56.570Z,22.73
2017-09-25T16:47:25.444Z,24.23
2017-09-25T16:49:54.314Z,20.47
2017-09-25T16:52:23.221Z,29.30
2017-09-25T16:54:52.066Z,21.37
2017-09-25T16:57:20.923Z,26.03
2017-09-25T16:59:49.850Z,29.70
2017-09-25T17:02:18.759Z,23.70
2017-09-25T17:04:47.617Z,21.90
2017-09-25T17:07:16.683Z,22.60
2017-09-25T17:09:45.656Z,20.50
2017-09-25T17:12:14.518Z,20.50
2017-09-25T17:14:43.411Z,19.17
2017-09-25T17:17:12.278Z,21.23
2017-09-25T17:19:41.317Z,22.10
2017-09-25T17:22:10.178Z,19.43
2017-09-25T17:24:39.027Z,23.40
2017-09-25T17:27:07.905Z,17.97
2017-09-25T17:29:36.885Z,20.87
2017-09-25T17:32:05.863Z,28.90
2017-09-25T17:34:34.734Z,24.00
2017-09-25T17:37:03.586Z,20.50
2017-09-25T17:39:32.450Z,22.13
2017-09-25T17:42:01.323Z,21.17
2017-09-25T17:44:30.324Z,21.57
2017-09-25T17:46:59.179Z,20.90
2017-09-25T17:49:28.049Z,18.03
2017-09-25T17:51:57.012Z,16.67
2017-09-25T17:54:25.894Z,17.57
2017-09-25T17:56:54.804Z,20.90
2017-09-25T17:59:23.659Z,20.63
2017-09-25T18:01:52.509Z,19.53
2017-09-25T18:04:21.446Z,20.53
2017-09-25T18:06:50.389Z,18.00
2017-09-25T18:09:19.319Z,20.13
2017-09-25T18:11:48.191Z,21.83
2017-09-25T18:14:17.060Z,20.30
2017-09-25T18:16:45.950Z,18.73
2017-09-25T18:19:14.828Z,21.43
2017-09-25T18:21:43.720Z,26.43
2017-09-25T18:24:12.571Z,28.10
2017-09-25T18:26:41.432Z,23.47
2017-09-25T18:29:10.332Z,21.23
2017-09-25T18:31:39.201Z,26.33
2017-09-25T18:34:08.093Z,25.67
2017-09-25T18:36:36.957Z,19.67
2017-09-25T18:39:06.587Z,23.07
2017-09-25T18:41:35.466Z,24.50
2017-09-25T18:44:04.326Z,28.23
2017-09-25T18:46:33.222Z,32.03
2017-09-25T18:49:02.111Z,31.80
2017-09-25T18:51:30.984Z,34.87
2017-09-25T18:53:59.977Z,37.10
2017-09-25T18:56:28.857Z,29.47
2017-09-25T18:58:57.811Z,42.17
2017-09-25T19:01:26.688Z,31.00
2017-09-25T19:03:55.582Z,25.93
2017-09-25T19:06:24.455Z,28.97
2017-09-25T19:08:53.331Z,31.23
2017-09-25T19:11:22.221Z,26.97
2017-09-25T19:13:51.095Z,25.47
2017-09-25T19:16:19.994Z,23.57
2017-09-25T19:18:48.874Z,31.40
2017-09-25T19:21:17.767Z,29.33
2017-09-25T19:23:46.643Z,33.20
2017-09-25T19:26:15.530Z,30.80
2017-09-25T19:28:44.436Z,34.80
2017-09-25T19:31:13.295Z,29.93
2017-09-25T19:33:42.165Z,34.90
2017-09-25T19:36:11.046Z,42.83
2017-09-25T19:38:40.048Z,37.83
2017-09-25T19:41:08.908Z,30.97
2017-09-25T19:43:37.762Z,30.70
2017-09-25T19:46:06.641Z,34.60
2017-09-25T19:48:35.520Z,31.50
2017-09-25T19:51:04.942Z,29.10
2017-09-25T19:53:33.814Z,31.43
2017-09-25T19:56:02.696Z,31.37
2017-09-25T19:58:42.291Z,38.50
2017-09-25T20:01:11.190Z,33.87
2017-09-25T20:03:40.058Z,31.83
2017-09-25T20:06:09.044Z,27.73
2017-09-25T20:08:37.925Z,32.73
2017-09-25T20:11:09.572Z,29.00
2017-09-25T20:13:38.464Z,37.60
2017-09-25T20:16:13.250Z,30.77
2017-09-25T20:18:42.116Z,32.33
2017-09-25T20:21:11.090Z,36.57
2017-09-25T20:23:39.982Z,37.40
2017-09-25T20:26:08.894Z,37.47
2017-09-25T20:28:37.911Z,34.57
2017-09-25T20:31:06.795Z,37.43
2017-09-25T20:33:35.665Z,35.37
2017-09-25T20:36:04.546Z,39.53
2017-09-25T20:38:33.410Z,43.90
2017-09-25T20:41:03.101Z,43.43
2017-09-25T20:43:34.720Z,49.13
2017-09-25T20:46:03.599Z,37.67
2017-09-25T20:48:32.473Z,39.87
2017-09-25T20:51:01.358Z,43.33
2017-09-25T20:53:30.223Z,36.00
2017-09-25T20:55:59.111Z,43.37
2017-09-25T20:58:27.962Z,43.53
2017-09-25T21:00:56.848Z,42.37
2017-09-25T21:03:25.733Z,47.10
2017-09-25T21:05:54.595Z,48.73
2017-09-25T21:08:23.463Z,39.63
2017-09-25T21:10:52.328Z,37.43
2017-09-25T21:13:21.198Z,38.07
2017-09-25T21:15:50.185Z,39.00
2017-09-25T21:18:19.132Z,37.00
2017-09-25T21:20:48.020Z,48.57
2017-09-25T21:23:16.912Z,39.20
2017-09-25T21:25:45.778Z,39.17
2017-09-25T21:28:14.640Z,37.63
2017-09-25T21:30:43.517Z,36.93
2017-09-25T21:33:12.407Z,42.10
2017-09-25T21:35:41.291Z,46.43
2017-09-25T21:38:10.130Z,37.50
2017-09-25T21:40:39.155Z,39.53
2017-09-25T21:43:08.025Z,58.10
2017-09-25T21:45:36.918Z,35.00
2017-09-25T21:48:05.807Z,34.00
2017-09-25T21:50:34.697Z,29.40
2017-09-25T21:53:03.562Z,28.77
2017-09-25T21:55:32.423Z,30.10
2017-09-25T21:58:01.323Z,35.93
2017-09-25T22:00:30.192Z,26.27
2017-09-25T22:02:59.052Z,30.13
2017-09-25T22:05:27.931Z,29.63
2017-09-25T22:07:56.811Z,26.07
2017-09-25T22:10:25.711Z,24.87
2017-09-25T22:12:54.577Z,27.77
2017-09-25T22:15:23.453Z,29.97
2017-09-25T22:17:52.343Z,32.20
2017-09-25T22:20:21.245Z,26.10
2017-09-25T22:22:50.125Z,38.33
2017-09-25T22:25:18.985Z,24.87
2017-09-25T22:27:47.866Z,31.47
2017-09-25T22:30:16.714Z,29.70
2017-09-25T22:32:45.704Z,31.17
2017-09-25T22:35:14.575Z,25.40
2017-09-25T22:37:43.471Z,30.13
2017-09-25T22:40:12.346Z,29.80
2017-09-25T22:42:41.200Z,28.80
2017-09-25T22:45:10.088Z,32.20
2017-09-25T22:47:38.943Z,28.70
2017-09-25T22:50:07.822Z,31.03
2017-09-25T22:52:36.699Z,29.40
2017-09-25T22:55:06.240Z,32.00
2017-09-25T22:57:35.103Z,34.53
2017-09-25T23:00:03.994Z,27.43
2017-09-25T23:02:32.878Z,29.33
2017-09-25T23:05:14.670Z,37.33
2017-09-25T23:07:43.550Z,29.13
2017-09-25T23:10:12.484Z,33.03
2017-09-25T23:12:41.343Z,27.03
2017-09-25T23:15:10.259Z,21.93
2017-09-25T23:17:39.359Z,26.77
2017-09-25T23:20:08.249Z,24.90
2017-09-25T23:22:37.153Z,24.20
2017-09-25T23:25:06.023Z,25.97
2017-09-25T23:27:34.885Z,28.70
2017-09-25T23:30:18.659Z,27.03
2017-09-25T23:32:47.527Z,29.57
2017-09-25T23:35:16.398Z,27.97
2017-09-25T23:37:45.273Z,30.50
2017-09-25T23:40:14.150Z,25.10
2017-09-25T23:42:43.021Z,23.93
2017-09-25T23:45:11.926Z,23.07
2017-09-25T23:47:40.792Z,21.17
2017-09-25T23:50:09.694Z,25.13
2017-09-25T23:52:38.628Z,25.30
2017-09-25T23:55:07.490Z,27.53
2017-09-25T23:57:36.367Z,39.47
